sensor_id;sensor_type;location;lat;lon;timestamp;P1;durP1;ratioP1;P2;durP2;ratioP2
29824;SDS011;16713;52.916;12.834;2023-07-31T00:00:58;6.20;;;2.05;;
29824;SDS011;16713;52.916;12.834;2023-07-31T00:03:25;3.47;;;1.88;;
29824;SDS011;16713;52.916;12.834;2023-07-31T00:05:51;5.45;;;2.17;;
29824;SDS011;16713;52.916;12.834;2023-07-31T00:08:18;5.85;;;2.08;;
29824;SDS011;16713;52.916;12.834;2023-07-31T00:10:44;9.73;;;3.08;;
29824;SDS011;16713;52.916;12.834;2023-07-31T00:13:11;5.47;;;2.42;;
29824;SDS011;16713;52.916;12.834;2023-07-31T00:15:38;5.43;;;2.40;;
29824;SDS011;16713;52.916;12.834;2023-07-31T00:18:04;5.13;;;2.38;;
29824;SDS011;16713;52.916;12.834;2023-07-31T00:20:31;6.20;;;2.47;;
29824;SDS011;16713;52.916;12.834;2023-07-31T00:22:57;12.50;;;2.95;;
29824;SDS011;16713;52.916;12.834;2023-07-31T00:25:24;5.38;;;2.30;;
29824;SDS011;16713;52.916;12.834;2023-07-31T00:27:50;5.00;;;2.50;;
29824;SDS011;16713;52.916;12.834;2023-07-31T00:30:17;5.07;;;2.20;;
29824;SDS011;16713;52.916;12.834;2023-07-31T00:32:43;4.93;;;1.88;;
29824;SDS011;16713;52.916;12.834;2023-07-31T00:35:10;3.88;;;1.77;;
29824;SDS011;16713;52.916;12.834;2023-07-31T00:37:36;4.40;;;2.10;;
29824;SDS011;16713;52.916;12.834;2023-07-31T00:40:03;5.95;;;2.38;;
29824;SDS011;16713;52.916;12.834;2023-07-31T00:42:29;4.63;;;2.28;;
29824;SDS011;16713;52.916;12.834;2023-07-31T00:44:56;5.47;;;1.90;;
29824;SDS011;16713;52.916;12.834;2023-07-31T00:47:23;5.93;;;2.42;;
29824;SDS011;16713;52.916;12.834;2023-07-31T00:49:49;3.17;;;2.00;;
29824;SDS011;16713;52.916;12.834;2023-07-31T00:52:16;6.05;;;2.22;;
29824;SDS011;16713;52.916;12.834;2023-07-31T00:54:43;10.02;;;1.85;;
29824;SDS011;16713;52.916;12.834;2023-07-31T00:57:10;5.97;;;2.58;;
29824;SDS011;16713;52.916;12.834;2023-07-31T00:59:36;5.03;;;2.15;;
29824;SDS011;16713;52.916;12.834;2023-07-31T01:02:03;5.43;;;1.85;;
29824;SDS011;16713;52.916;12.834;2023-07-31T01:04:30;5.93;;;2.30;;
29824;SDS011;16713;52.916;12.834;2023-07-31T01:09:46;8.52;;;2.58;;
29824;SDS011;16713;52.916;12.834;2023-07-31T01:12:14;5.78;;;2.25;;
29824;SDS011;16713;52.916;12.834;2023-07-31T01:17:40;6.13;;;2.88;;
29824;SDS011;16713;52.916;12.834;2023-07-31T01:20:12;6.22;;;1.98;;
29824;SDS011;16713;52.916;12.834;2023-07-31T01:28:20;10.27;;;2.35;;
29824;SDS011;16713;52.916;12.834;2023-07-31T01:30:51;3.78;;;1.85;;
29824;SDS011;16713;52.916;12.834;2023-07-31T01:33:21;2.95;;;1.60;;
29824;SDS011;16713;52.916;12.834;2023-07-31T01:35:48;10.07;;;2.38;;
29824;SDS011;16713;52.916;12.834;2023-07-31T01:38:15;5.68;;;1.70;;
29824;SDS011;16713;52.916;12.834;2023-07-31T01:40:41;4.70;;;2.13;;
29824;SDS011;16713;52.916;12.834;2023-07-31T01:43:08;8.38;;;2.10;;
29824;SDS011;16713;52.916;12.834;2023-07-31T01:45:35;6.47;;;2.00;;
29824;SDS011;16713;52.916;12.834;2023-07-31T01:48:01;4.15;;;1.73;;
29824;SDS011;16713;52.916;12.834;2023-07-31T01:50:28;3.30;;;1.60;;
29824;SDS011;16713;52.916;12.834;2023-07-31T01:52:54;4.63;;;1.77;;
29824;SDS011;16713;52.916;12.834;2023-07-31T01:55:20;9.02;;;1.90;;
29824;SDS011;16713;52.916;12.834;2023-07-31T01:57:47;6.30;;;1.70;;
29824;SDS011;16713;52.916;12.834;2023-07-31T02:00:14;6.10;;;2.38;;
29824;SDS011;16713;52.916;12.834;2023-07-31T02:02:41;7.05;;;1.98;;
29824;SDS011;16713;52.916;12.834;2023-07-31T02:05:08;4.03;;;1.75;;
29824;SDS011;16713;52.916;12.834;2023-07-31T02:07:34;6.07;;;2.00;;
29824;SDS011;16713;52.916;12.834;2023-07-31T02:10:01;4.03;;;1.70;;
29824;SDS011;16713;52.916;12.834;2023-07-31T02:12:27;3.35;;;1.70;;
29824;SDS011;16713;52.916;12.834;2023-07-31T02:14:56;5.82;;;2.35;;
29824;SDS011;16713;52.916;12.834;2023-07-31T02:17:23;6.28;;;1.98;;
29824;SDS011;16713;52.916;12.834;2023-07-31T02:19:49;5.40;;;2.00;;
29824;SDS011;16713;52.916;12.834;2023-07-31T02:22:16;6.03;;;1.85;;
29824;SDS011;16713;52.916;12.834;2023-07-31T02:24:42;3.75;;;1.60;;
29824;SDS011;16713;52.916;12.834;2023-07-31T02:27:08;5.32;;;2.28;;
29824;SDS011;16713;52.916;12.834;2023-07-31T02:29:35;4.35;;;2.13;;
29824;SDS011;16713;52.916;12.834;2023-07-31T02:32:01;7.15;;;2.58;;
29824;SDS011;16713;52.916;12.834;2023-07-31T02:34:28;6.80;;;2.22;;
29824;SDS011;16713;52.916;12.834;2023-07-31T02:36:55;5.38;;;2.05;;
29824;SDS011;16713;52.916;12.834;2023-07-31T02:39:21;3.60;;;1.92;;
29824;SDS011;16713;52.916;12.834;2023-07-31T02:41:48;6.53;;;2.03;;
29824;SDS011;16713;52.916;12.834;2023-07-31T02:44:14;4.40;;;1.80;;
29824;SDS011;16713;52.916;12.834;2023-07-31T02:46:40;9.23;;;3.10;;
29824;SDS011;16713;52.916;12.834;2023-07-31T02:49:07;6.38;;;2.45;;
29824;SDS011;16713;52.916;12.834;2023-07-31T02:51:33;5.63;;;2.42;;
29824;SDS011;16713;52.916;12.834;2023-07-31T02:54:00;4.82;;;2.30;;
29824;SDS011;16713;52.916;12.834;2023-07-31T02:56:26;6.10;;;2.22;;
29824;SDS011;16713;52.916;12.834;2023-07-31T02:58:53;7.57;;;2.50;;
29824;SDS011;16713;52.916;12.834;2023-07-31T03:01:20;3.67;;;1.77;;
29824;SDS011;16713;52.916;12.834;2023-07-31T03:03:46;4.00;;;1.75;;
29824;SDS011;16713;52.916;12.834;2023-07-31T03:06:13;5.18;;;1.95;;
29824;SDS011;16713;52.916;12.834;2023-07-31T03:08:39;2.40;;;1.50;;
29824;SDS011;16713;52.916;12.834;2023-07-31T03:11:06;7.60;;;1.95;;
29824;SDS011;16713;52.916;12.834;2023-07-31T03:13:32;4.50;;;2.20;;
29824;SDS011;16713;52.916;12.834;2023-07-31T03:15:58;4.13;;;2.20;;
29824;SDS011;16713;52.916;12.834;2023-07-31T03:18:25;6.10;;;2.22;;
29824;SDS011;16713;52.916;12.834;2023-07-31T03:20:51;6.72;;;2.47;;
29824;SDS011;16713;52.916;12.834;2023-07-31T03:23:18;5.00;;;3.08;;
29824;SDS011;16713;52.916;12.834;2023-07-31T03:25:57;6.20;;;1.90;;
29824;SDS011;16713;52.916;12.834;2023-07-31T03:28:23;5.10;;;2.40;;
29824;SDS011;16713;52.916;12.834;2023-07-31T03:30:51;5.05;;;2.08;;
29824;SDS011;16713;52.916;12.834;2023-07-31T03:33:18;8.38;;;2.67;;
29824;SDS011;16713;52.916;12.834;2023-07-31T03:35:45;6.55;;;2.08;;
29824;SDS011;16713;52.916;12.834;2023-07-31T03:38:11;3.65;;;1.98;;
29824;SDS011;16713;52.916;12.834;2023-07-31T03:40:38;11.18;;;2.35;;
29824;SDS011;16713;52.916;12.834;2023-07-31T03:43:05;5.28;;;2.22;;
29824;SDS011;16713;52.916;12.834;2023-07-31T03:45:32;4.45;;;2.22;;
29824;SDS011;16713;52.916;12.834;2023-07-31T03:47:58;7.60;;;2.67;;
29824;SDS011;16713;52.916;12.834;2023-07-31T03:50:25;4.15;;;2.13;;
29824;SDS011;16713;52.916;12.834;2023-07-31T03:52:52;6.82;;;2.53;;
29824;SDS011;16713;52.916;12.834;2023-07-31T03:55:18;7.05;;;1.92;;
29824;SDS011;16713;52.916;12.834;2023-07-31T03:57:45;4.88;;;2.55;;
29824;SDS011;16713;52.916;12.834;2023-07-31T04:00:11;3.45;;;2.38;;
29824;SDS011;16713;52.916;12.834;2023-07-31T04:02:38;3.67;;;1.83;;
29824;SDS011;16713;52.916;12.834;2023-07-31T04:05:04;2.97;;;2.25;;
29824;SDS011;16713;52.916;12.834;2023-07-31T04:07:31;5.85;;;2.65;;
29824;SDS011;16713;52.916;12.834;2023-07-31T04:09:57;5.65;;;2.42;;
29824;SDS011;16713;52.916;12.834;2023-07-31T04:12:24;5.50;;;2.80;;
29824;SDS011;16713;52.916;12.834;2023-07-31T04:14:50;6.05;;;2.13;;
29824;SDS011;16713;52.916;12.834;2023-07-31T04:17:17;6.20;;;2.40;;
29824;SDS011;16713;52.916;12.834;2023-07-31T04:19:44;5.00;;;2.53;;
29824;SDS011;16713;52.916;12.834;2023-07-31T04:22:10;5.30;;;2.15;;
29824;SDS011;16713;52.916;12.834;2023-07-31T04:24:37;5.43;;;2.83;;
29824;SDS011;16713;52.916;12.834;2023-07-31T04:27:03;5.95;;;2.70;;
29824;SDS011;16713;52.916;12.834;2023-07-31T04:29:29;9.48;;;2.67;;
29824;SDS011;16713;52.916;12.834;2023-07-31T04:31:56;6.55;;;2.53;;
29824;SDS011;16713;52.916;12.834;2023-07-31T04:34:22;5.20;;;2.90;;
29824;SDS011;16713;52.916;12.834;2023-07-31T04:36:49;8.25;;;2.80;;
29824;SDS011;16713;52.916;12.834;2023-07-31T04:39:15;5.47;;;2.40;;
29824;SDS011;16713;52.916;12.834;2023-07-31T04:41:42;4.75;;;2.30;;
29824;SDS011;16713;52.916;12.834;2023-07-31T04:44:08;5.68;;;2.58;;
29824;SDS011;16713;52.916;12.834;2023-07-31T04:46:37;5.22;;;2.72;;
29824;SDS011;16713;52.916;12.834;2023-07-31T04:49:04;3.10;;;2.47;;
29824;SDS011;16713;52.916;12.834;2023-07-31T04:51:31;6.30;;;2.65;;
29824;SDS011;16713;52.916;12.834;2023-07-31T04:53:57;5.45;;;2.55;;
29824;SDS011;16713;52.916;12.834;2023-07-31T04:56:23;7.32;;;2.72;;
29824;SDS011;16713;52.916;12.834;2023-07-31T04:58:50;7.53;;;2.95;;
29824;SDS011;16713;52.916;12.834;2023-07-31T05:01:16;4.93;;;2.55;;
29824;SDS011;16713;52.916;12.834;2023-07-31T05:03:43;4.07;;;2.40;;
29824;SDS011;16713;52.916;12.834;2023-07-31T05:06:10;5.10;;;2.67;;
29824;SDS011;16713;52.916;12.834;2023-07-31T05:08:36;4.75;;;2.55;;
29824;SDS011;16713;52.916;12.834;2023-07-31T05:11:03;6.15;;;3.03;;
29824;SDS011;16713;52.916;12.834;2023-07-31T05:13:29;5.55;;;2.58;;
29824;SDS011;16713;52.916;12.834;2023-07-31T05:15:56;6.00;;;2.53;;
29824;SDS011;16713;52.916;12.834;2023-07-31T05:18:24;6.78;;;2.35;;
29824;SDS011;16713;52.916;12.834;2023-07-31T05:20:51;6.30;;;3.15;;
29824;SDS011;16713;52.916;12.834;2023-07-31T05:23:17;4.35;;;2.40;;
29824;SDS011;16713;52.916;12.834;2023-07-31T05:25:44;7.63;;;2.65;;
29824;SDS011;16713;52.916;12.834;2023-07-31T05:28:12;3.85;;;2.30;;
29824;SDS011;16713;52.916;12.834;2023-07-31T05:30:39;5.32;;;2.72;;
29824;SDS011;16713;52.916;12.834;2023-07-31T05:33:05;6.60;;;2.72;;
29824;SDS011;16713;52.916;12.834;2023-07-31T05:35:32;7.93;;;2.80;;
29824;SDS011;16713;52.916;12.834;2023-07-31T05:37:58;7.95;;;2.85;;
29824;SDS011;16713;52.916;12.834;2023-07-31T05:40:24;6.10;;;2.80;;
29824;SDS011;16713;52.916;12.834;2023-07-31T05:42:51;7.05;;;3.00;;
29824;SDS011;16713;52.916;12.834;2023-07-31T05:45:17;5.28;;;2.85;;
29824;SDS011;16713;52.916;12.834;2023-07-31T05:47:44;5.78;;;2.97;;
29824;SDS011;16713;52.916;12.834;2023-07-31T05:50:10;6.18;;;3.15;;
29824;SDS011;16713;52.916;12.834;2023-07-31T05:52:37;6.65;;;2.95;;
29824;SDS011;16713;52.916;12.834;2023-07-31T05:55:03;6.88;;;3.03;;
29824;SDS011;16713;52.916;12.834;2023-07-31T05:57:30;6.70;;;3.13;;
29824;SDS011;16713;52.916;12.834;2023-07-31T05:59:57;6.05;;;3.15;;
29824;SDS011;16713;52.916;12.834;2023-07-31T06:02:23;6.07;;;2.88;;
29824;SDS011;16713;52.916;12.834;2023-07-31T06:04:50;4.30;;;2.95;;
29824;SDS011;16713;52.916;12.834;2023-07-31T06:07:16;6.10;;;2.90;;
29824;SDS011;16713;52.916;12.834;2023-07-31T06:09:43;7.43;;;2.97;;
29824;SDS011;16713;52.916;12.834;2023-07-31T06:12:09;5.97;;;3.53;;
29824;SDS011;16713;52.916;12.834;2023-07-31T06:14:36;8.80;;;3.10;;
29824;SDS011;16713;52.916;12.834;2023-07-31T06:17:02;7.72;;;3.53;;
29824;SDS011;16713;52.916;12.834;2023-07-31T06:19:29;6.32;;;2.60;;
29824;SDS011;16713;52.916;12.834;2023-07-31T06:21:55;6.38;;;3.25;;
29824;SDS011;16713;52.916;12.834;2023-07-31T06:24:22;5.97;;;3.10;;
29824;SDS011;16713;52.916;12.834;2023-07-31T06:26:49;6.60;;;2.90;;
29824;SDS011;16713;52.916;12.834;2023-07-31T06:29:17;9.98;;;3.33;;
29824;SDS011;16713;52.916;12.834;2023-07-31T06:31:43;5.88;;;2.97;;
29824;SDS011;16713;52.916;12.834;2023-07-31T06:34:10;5.82;;;3.00;;
29824;SDS011;16713;52.916;12.834;2023-07-31T06:36:36;6.00;;;3.22;;
29824;SDS011;16713;52.916;12.834;2023-07-31T06:39:03;5.55;;;2.95;;
29824;SDS011;16713;52.916;12.834;2023-07-31T06:41:30;5.03;;;3.45;;
29824;SDS011;16713;52.916;12.834;2023-07-31T06:43:56;6.60;;;3.15;;
29824;SDS011;16713;52.916;12.834;2023-07-31T06:46:23;5.88;;;3.13;;
29824;SDS011;16713;52.916;12.834;2023-07-31T06:48:49;5.38;;;2.75;;
29824;SDS011;16713;52.916;12.834;2023-07-31T06:51:16;4.90;;;2.70;;
29824;SDS011;16713;52.916;12.834;2023-07-31T06:53:42;5.68;;;2.75;;
29824;SDS011;16713;52.916;12.834;2023-07-31T06:56:11;6.45;;;3.05;;
29824;SDS011;16713;52.916;12.834;2023-07-31T06:58:37;11.13;;;2.90;;
29824;SDS011;16713;52.916;12.834;2023-07-31T07:01:04;10.57;;;4.10;;
29824;SDS011;16713;52.916;12.834;2023-07-31T07:03:30;4.38;;;3.30;;
29824;SDS011;16713;52.916;12.834;2023-07-31T07:05:57;7.93;;;2.72;;
29824;SDS011;16713;52.916;12.834;2023-07-31T07:08:25;5.82;;;3.20;;
29824;SDS011;16713;52.916;12.834;2023-07-31T07:10:52;6.28;;;3.50;;
29824;SDS011;16713;52.916;12.834;2023-07-31T07:13:20;8.18;;;3.63;;
29824;SDS011;16713;52.916;12.834;2023-07-31T07:15:48;4.75;;;3.05;;
29824;SDS011;16713;52.916;12.834;2023-07-31T07:18:15;4.35;;;3.08;;
29824;SDS011;16713;52.916;12.834;2023-07-31T07:20:52;4.60;;;2.90;;
29824;SDS011;16713;52.916;12.834;2023-07-31T07:23:20;6.50;;;2.80;;
29824;SDS011;16713;52.916;12.834;2023-07-31T07:25:47;6.75;;;3.20;;
29824;SDS011;16713;52.916;12.834;2023-07-31T07:28:13;6.30;;;2.63;;
29824;SDS011;16713;52.916;12.834;2023-07-31T07:30:40;7.45;;;3.00;;
29824;SDS011;16713;52.916;12.834;2023-07-31T07:33:07;3.53;;;2.65;;
29824;SDS011;16713;52.916;12.834;2023-07-31T07:35:33;5.35;;;2.72;;
29824;SDS011;16713;52.916;12.834;2023-07-31T07:38:01;2.90;;;1.98;;
29824;SDS011;16713;52.916;12.834;2023-07-31T07:40:28;3.78;;;2.10;;
29824;SDS011;16713;52.916;12.834;2023-07-31T07:42:55;2.75;;;1.95;;
29824;SDS011;16713;52.916;12.834;2023-07-31T07:45:21;5.07;;;1.90;;
29824;SDS011;16713;52.916;12.834;2023-07-31T07:47:48;4.20;;;2.22;;
29824;SDS011;16713;52.916;12.834;2023-07-31T07:50:14;3.97;;;2.05;;
29824;SDS011;16713;52.916;12.834;2023-07-31T07:52:41;3.00;;;1.90;;
29824;SDS011;16713;52.916;12.834;2023-07-31T07:55:07;3.72;;;1.92;;
29824;SDS011;16713;52.916;12.834;2023-07-31T07:57:34;2.60;;;1.90;;
29824;SDS011;16713;52.916;12.834;2023-07-31T08:00:01;3.42;;;2.10;;
29824;SDS011;16713;52.916;12.834;2023-07-31T08:02:27;3.58;;;1.90;;
29824;SDS011;16713;52.916;12.834;2023-07-31T08:04:54;2.13;;;1.65;;
29824;SDS011;16713;52.916;12.834;2023-07-31T08:07:20;3.60;;;1.58;;
29824;SDS011;16713;52.916;12.834;2023-07-31T08:09:47;3.13;;;1.70;;
29824;SDS011;16713;52.916;12.834;2023-07-31T08:12:13;2.10;;;1.67;;
29824;SDS011;16713;52.916;12.834;2023-07-31T08:14:40;2.22;;;1.67;;
29824;SDS011;16713;52.916;12.834;2023-07-31T08:17:06;2.38;;;1.75;;
29824;SDS011;16713;52.916;12.834;2023-07-31T08:19:33;2.47;;;1.60;;
29824;SDS011;16713;52.916;12.834;2023-07-31T08:21:59;2.38;;;2.05;;
29824;SDS011;16713;52.916;12.834;2023-07-31T08:24:26;1.80;;;1.60;;
29824;SDS011;16713;52.916;12.834;2023-07-31T08:26:52;3.33;;;1.80;;
29824;SDS011;16713;52.916;12.834;2023-07-31T08:29:19;4.13;;;1.50;;
29824;SDS011;16713;52.916;12.834;2023-07-31T08:31:45;2.40;;;1.60;;
29824;SDS011;16713;52.916;12.834;2023-07-31T08:34:12;1.52;;;1.40;;
29824;SDS011;16713;52.916;12.834;2023-07-31T08:36:38;2.35;;;1.63;;
29824;SDS011;16713;52.916;12.834;2023-07-31T08:39:05;1.95;;;1.60;;
29824;SDS011;16713;52.916;12.834;2023-07-31T08:41:37;1.30;;;1.10;;
29824;SDS011;16713;52.916;12.834;2023-07-31T08:44:05;3.78;;;1.85;;
29824;SDS011;16713;52.916;12.834;2023-07-31T08:46:32;3.83;;;1.80;;
29824;SDS011;16713;52.916;12.834;2023-07-31T08:49:00;1.88;;;1.67;;
29824;SDS011;16713;52.916;12.834;2023-07-31T08:51:33;1.50;;;1.40;;
29824;SDS011;16713;52.916;12.834;2023-07-31T08:54:00;2.55;;;1.65;;
29824;SDS011;16713;52.916;12.834;2023-07-31T08:56:27;1.95;;;1.48;;
29824;SDS011;16713;52.916;12.834;2023-07-31T08:58:54;1.50;;;1.40;;
29824;SDS011;16713;52.916;12.834;2023-07-31T09:01:21;2.63;;;1.50;;
29824;SDS011;16713;52.916;12.834;2023-07-31T09:03:48;1.60;;;1.30;;
29824;SDS011;16713;52.916;12.834;2023-07-31T09:06:18;1.92;;;1.50;;
29824;SDS011;16713;52.916;12.834;2023-07-31T09:08:46;2.42;;;1.48;;
29824;SDS011;16713;52.916;12.834;2023-07-31T09:11:13;1.70;;;1.60;;
29824;SDS011;16713;52.916;12.834;2023-07-31T09:13:40;3.53;;;1.50;;
29824;SDS011;16713;52.916;12.834;2023-07-31T09:16:08;3.67;;;1.45;;
29824;SDS011;16713;52.916;12.834;2023-07-31T09:18:52;1.45;;;1.35;;
29824;SDS011;16713;52.916;12.834;2023-07-31T09:21:19;1.70;;;1.35;;
29824;SDS011;16713;52.916;12.834;2023-07-31T09:23:46;2.60;;;1.60;;
29824;SDS011;16713;52.916;12.834;2023-07-31T09:28:57;2.20;;;1.70;;
29824;SDS011;16713;52.916;12.834;2023-07-31T09:31:31;3.72;;;1.63;;
29824;SDS011;16713;52.916;12.834;2023-07-31T09:34:05;1.45;;;1.30;;
29824;SDS011;16713;52.916;12.834;2023-07-31T09:36:32;1.45;;;1.35;;
29824;SDS011;16713;52.916;12.834;2023-07-31T09:39:02;1.70;;;1.00;;
29824;SDS011;16713;52.916;12.834;2023-07-31T09:41:35;1.40;;;1.20;;
29824;SDS011;16713;52.916;12.834;2023-07-31T09:44:03;0.95;;;0.90;;
29824;SDS011;16713;52.916;12.834;2023-07-31T09:46:30;1.13;;;0.95;;
29824;SDS011;16713;52.916;12.834;2023-07-31T09:49:04;1.83;;;1.17;;
29824;SDS011;16713;52.916;12.834;2023-07-31T09:51:37;3.15;;;1.55;;
29824;SDS011;16713;52.916;12.834;2023-07-31T09:54:11;1.70;;;1.15;;
29824;SDS011;16713;52.916;12.834;2023-07-31T09:56:41;3.08;;;0.90;;
29824;SDS011;16713;52.916;12.834;2023-07-31T09:59:10;1.35;;;0.95;;
29824;SDS011;16713;52.916;12.834;2023-07-31T10:01:41;2.63;;;0.82;;
29824;SDS011;16713;52.916;12.834;2023-07-31T10:04:09;0.98;;;0.90;;
29824;SDS011;16713;52.916;12.834;2023-07-31T10:06:37;1.52;;;1.00;;
29824;SDS011;16713;52.916;12.834;2023-07-31T10:09:05;1.13;;;1.02;;
29824;SDS011;16713;52.916;12.834;2023-07-31T10:11:47;1.20;;;1.10;;
29824;SDS011;16713;52.916;12.834;2023-07-31T10:14:19;1.27;;;1.15;;
29824;SDS011;16713;52.916;12.834;2023-07-31T10:16:46;1.48;;;1.38;;
29824;SDS011;16713;52.916;12.834;2023-07-31T10:19:13;1.55;;;1.30;;
29824;SDS011;16713;52.916;12.834;2023-07-31T10:21:40;1.42;;;1.20;;
29824;SDS011;16713;52.916;12.834;2023-07-31T10:24:08;2.28;;;1.30;;
29824;SDS011;16713;52.916;12.834;2023-07-31T10:26:35;1.55;;;1.45;;
29824;SDS011;16713;52.916;12.834;2023-07-31T10:29:05;2.17;;;1.92;;
29824;SDS011;16713;52.916;12.834;2023-07-31T10:31:32;3.63;;;2.10;;
29824;SDS011;16713;52.916;12.834;2023-07-31T10:34:00;2.30;;;2.05;;
29824;SDS011;16713;52.916;12.834;2023-07-31T10:36:29;2.40;;;2.10;;
29824;SDS011;16713;52.916;12.834;2023-07-31T10:38:55;4.13;;;3.05;;
29824;SDS011;16713;52.916;12.834;2023-07-31T10:41:31;2.90;;;2.35;;
29824;SDS011;16713;52.916;12.834;2023-07-31T10:43:59;6.57;;;2.70;;
29824;SDS011;16713;52.916;12.834;2023-07-31T10:46:29;4.38;;;2.60;;
29824;SDS011;16713;52.916;12.834;2023-07-31T10:49:00;6.65;;;3.97;;
29824;SDS011;16713;52.916;12.834;2023-07-31T10:51:34;4.57;;;2.72;;
29824;SDS011;16713;52.916;12.834;2023-07-31T10:54:11;4.13;;;2.40;;
29824;SDS011;16713;52.916;12.834;2023-07-31T10:56:44;4.28;;;3.20;;
29824;SDS011;16713;52.916;12.834;2023-07-31T10:59:12;6.63;;;3.28;;
29824;SDS011;16713;52.916;12.834;2023-07-31T11:01:53;5.47;;;3.80;;
29824;SDS011;16713;52.916;12.834;2023-07-31T11:04:26;6.30;;;3.92;;
29824;SDS011;16713;52.916;12.834;2023-07-31T11:06:57;6.38;;;3.95;;
29824;SDS011;16713;52.916;12.834;2023-07-31T11:09:27;6.28;;;4.93;;
29824;SDS011;16713;52.916;12.834;2023-07-31T11:11:56;8.43;;;4.90;;
29824;SDS011;16713;52.916;12.834;2023-07-31T11:14:23;9.23;;;5.43;;
29824;SDS011;16713;52.916;12.834;2023-07-31T11:16:49;7.07;;;4.38;;
29824;SDS011;16713;52.916;12.834;2023-07-31T11:19:24;8.75;;;5.55;;
29824;SDS011;16713;52.916;12.834;2023-07-31T11:21:51;9.02;;;4.95;;
29824;SDS011;16713;52.916;12.834;2023-07-31T11:24:19;8.52;;;5.45;;
29824;SDS011;16713;52.916;12.834;2023-07-31T11:26:50;9.18;;;6.13;;
29824;SDS011;16713;52.916;12.834;2023-07-31T11:29:20;10.88;;;5.55;;
29824;SDS011;16713;52.916;12.834;2023-07-31T11:31:47;9.93;;;5.28;;
29824;SDS011;16713;52.916;12.834;2023-07-31T11:34:15;10.57;;;5.80;;
29824;SDS011;16713;52.916;12.834;2023-07-31T11:36:52;13.55;;;5.22;;
29824;SDS011;16713;52.916;12.834;2023-07-31T11:39:19;10.95;;;6.95;;
29824;SDS011;16713;52.916;12.834;2023-07-31T11:41:45;7.90;;;4.97;;
29824;SDS011;16713;52.916;12.834;2023-07-31T11:44:12;10.05;;;5.13;;
29824;SDS011;16713;52.916;12.834;2023-07-31T11:46:52;7.95;;;5.22;;
29824;SDS011;16713;52.916;12.834;2023-07-31T11:49:19;11.10;;;5.85;;
29824;SDS011;16713;52.916;12.834;2023-07-31T11:51:45;7.45;;;4.90;;
29824;SDS011;16713;52.916;12.834;2023-07-31T11:54:12;9.63;;;5.30;;
29824;SDS011;16713;52.916;12.834;2023-07-31T11:56:40;8.68;;;4.93;;
29824;SDS011;16713;52.916;12.834;2023-07-31T11:59:07;7.45;;;5.47;;
29824;SDS011;16713;52.916;12.834;2023-07-31T12:01:34;7.35;;;4.60;;
29824;SDS011;16713;52.916;12.834;2023-07-31T12:04:01;7.95;;;5.07;;
29824;SDS011;16713;52.916;12.834;2023-07-31T12:06:32;8.75;;;4.75;;
29824;SDS011;16713;52.916;12.834;2023-07-31T12:09:00;8.98;;;5.20;;
29824;SDS011;16713;52.916;12.834;2023-07-31T12:11:31;8.50;;;5.80;;
29824;SDS011;16713;52.916;12.834;2023-07-31T12:13:58;10.93;;;5.30;;
29824;SDS011;16713;52.916;12.834;2023-07-31T12:16:26;8.52;;;4.70;;
29824;SDS011;16713;52.916;12.834;2023-07-31T12:18:53;11.80;;;5.78;;
29824;SDS011;16713;52.916;12.834;2023-07-31T12:21:19;9.20;;;4.55;;
29824;SDS011;16713;52.916;12.834;2023-07-31T12:23:46;10.02;;;5.32;;
29824;SDS011;16713;52.916;12.834;2023-07-31T12:26:13;8.05;;;4.90;;
29824;SDS011;16713;52.916;12.834;2023-07-31T12:28:44;10.10;;;5.65;;
29824;SDS011;16713;52.916;12.834;2023-07-31T12:31:12;7.63;;;4.97;;
29824;SDS011;16713;52.916;12.834;2023-07-31T12:33:44;7.07;;;4.65;;
29824;SDS011;16713;52.916;12.834;2023-07-31T12:36:12;7.07;;;4.38;;
29824;SDS011;16713;52.916;12.834;2023-07-31T12:38:39;7.65;;;3.97;;
29824;SDS011;16713;52.916;12.834;2023-07-31T12:41:06;6.07;;;3.72;;
29824;SDS011;16713;52.916;12.834;2023-07-31T12:43:33;6.07;;;4.40;;
29824;SDS011;16713;52.916;12.834;2023-07-31T12:46:04;5.50;;;3.72;;
29824;SDS011;16713;52.916;12.834;2023-07-31T12:48:31;6.97;;;3.92;;
29824;SDS011;16713;52.916;12.834;2023-07-31T12:50:58;6.78;;;4.13;;
29824;SDS011;16713;52.916;12.834;2023-07-31T12:53:24;10.23;;;4.43;;
29824;SDS011;16713;52.916;12.834;2023-07-31T12:55:51;6.05;;;4.30;;
29824;SDS011;16713;52.916;12.834;2023-07-31T12:58:17;6.13;;;3.80;;
29824;SDS011;16713;52.916;12.834;2023-07-31T13:00:44;8.10;;;4.45;;
29824;SDS011;16713;52.916;12.834;2023-07-31T13:03:10;6.60;;;3.90;;
29824;SDS011;16713;52.916;12.834;2023-07-31T13:05:37;6.00;;;3.97;;
29824;SDS011;16713;52.916;12.834;2023-07-31T13:08:03;3.95;;;3.53;;
29824;SDS011;16713;52.916;12.834;2023-07-31T13:10:30;7.55;;;3.30;;
29824;SDS011;16713;52.916;12.834;2023-07-31T13:12:56;7.25;;;3.95;;
29824;SDS011;16713;52.916;12.834;2023-07-31T13:15:23;6.25;;;3.65;;
29824;SDS011;16713;52.916;12.834;2023-07-31T13:17:50;6.40;;;4.28;;
29824;SDS011;16713;52.916;12.834;2023-07-31T13:20:16;5.65;;;3.70;;
29824;SDS011;16713;52.916;12.834;2023-07-31T13:22:43;5.82;;;3.97;;
29824;SDS011;16713;52.916;12.834;2023-07-31T13:25:12;6.60;;;4.38;;
29824;SDS011;16713;52.916;12.834;2023-07-31T13:27:38;9.27;;;4.18;;
29824;SDS011;16713;52.916;12.834;2023-07-31T13:30:05;6.35;;;4.03;;
29824;SDS011;16713;52.916;12.834;2023-07-31T13:32:32;6.50;;;3.85;;
29824;SDS011;16713;52.916;12.834;2023-07-31T13:34:59;8.95;;;3.80;;
29824;SDS011;16713;52.916;12.834;2023-07-31T13:37:25;5.88;;;4.18;;
29824;SDS011;16713;52.916;12.834;2023-07-31T13:39:52;5.57;;;3.85;;
29824;SDS011;16713;52.916;12.834;2023-07-31T13:42:18;5.93;;;3.33;;
29824;SDS011;16713;52.916;12.834;2023-07-31T13:44:45;7.30;;;3.30;;
29824;SDS011;16713;52.916;12.834;2023-07-31T13:47:11;7.03;;;4.07;;
29824;SDS011;16713;52.916;12.834;2023-07-31T13:49:38;6.72;;;3.60;;
29824;SDS011;16713;52.916;12.834;2023-07-31T13:52:05;8.02;;;4.05;;
29824;SDS011;16713;52.916;12.834;2023-07-31T13:54:31;4.90;;;3.83;;
29824;SDS011;16713;52.916;12.834;2023-07-31T13:56:58;7.15;;;3.80;;
29824;SDS011;16713;52.916;12.834;2023-07-31T13:59:24;8.55;;;3.95;;
29824;SDS011;16713;52.916;12.834;2023-07-31T14:01:51;6.63;;;3.53;;
29824;SDS011;16713;52.916;12.834;2023-07-31T14:04:17;5.70;;;3.65;;
29824;SDS011;16713;52.916;12.834;2023-07-31T14:06:44;5.15;;;3.22;;
29824;SDS011;16713;52.916;12.834;2023-07-31T14:09:11;6.03;;;3.50;;
29824;SDS011;16713;52.916;12.834;2023-07-31T14:11:37;5.82;;;3.60;;
29824;SDS011;16713;52.916;12.834;2023-07-31T14:14:08;5.55;;;3.63;;
29824;SDS011;16713;52.916;12.834;2023-07-31T14:16:36;7.95;;;3.47;;
29824;SDS011;16713;52.916;12.834;2023-07-31T14:19:02;3.92;;;3.13;;
29824;SDS011;16713;52.916;12.834;2023-07-31T14:21:29;8.20;;;2.88;;
29824;SDS011;16713;52.916;12.834;2023-07-31T14:23:56;4.50;;;3.58;;
29824;SDS011;16713;52.916;12.834;2023-07-31T14:26:22;4.05;;;2.85;;
29824;SDS011;16713;52.916;12.834;2023-07-31T14:28:49;5.22;;;3.28;;
29824;SDS011;16713;52.916;12.834;2023-07-31T14:31:15;4.43;;;3.25;;
29824;SDS011;16713;52.916;12.834;2023-07-31T14:33:42;6.15;;;3.35;;
29824;SDS011;16713;52.916;12.834;2023-07-31T14:36:08;4.85;;;2.83;;
29824;SDS011;16713;52.916;12.834;2023-07-31T14:38:35;6.60;;;2.97;;
29824;SDS011;16713;52.916;12.834;2023-07-31T14:41:01;5.30;;;3.10;;
29824;SDS011;16713;52.916;12.834;2023-07-31T14:43:28;4.82;;;3.40;;
29824;SDS011;16713;52.916;12.834;2023-07-31T14:45:54;5.22;;;3.05;;
29824;SDS011;16713;52.916;12.834;2023-07-31T14:48:24;5.43;;;3.60;;